createdAt,value
2017-12-12T00:00:49.331Z,97445
2017-12-12T00:05:58.576Z,97462
2017-12-12T00:11:00.061Z,97468
2017-12-12T00:16:01.585Z,97476
2017-12-12T00:21:03.158Z,97483
2017-12-12T00:26:04.661Z,97493
2017-12-12T00:31:06.208Z,97511
2017-12-12T00:36:07.733Z,97531
2017-12-12T00:41:09.262Z,97545
2017-12-12T00:46:10.782Z,97555
2017-12-12T00:51:12.324Z,97568
2017-12-12T00:56:13.825Z,97581
2017-12-12T01:01:15.365Z,97603
2017-12-12T01:06:16.913Z,97615
2017-12-12T01:11:18.452Z,97626
2017-12-12T01:16:20.732Z,97638
2017-12-12T01:21:22.992Z,97649
2017-12-12T01:26:24.552Z,97674
2017-12-12T01:31:26.080Z,97691
2017-12-12T01:36:27.611Z,97696
2017-12-12T01:41:29.093Z,97727
2017-12-12T01:46:31.345Z,97737
2017-12-12T01:51:32.865Z,97759
2017-12-12T01:56:34.381Z,97792
2017-12-12T02:01:35.870Z,97807
2017-12-12T02:06:38.136Z,97825
2017-12-12T02:11:39.668Z,97835
2017-12-12T02:16:41.149Z,97844
2017-12-12T02:21:42.681Z,97865
2017-12-12T02:26:44.190Z,97871
2017-12-12T02:31:45.709Z,97904
2017-12-12T02:36:47.206Z,97912
2017-12-12T02:41:48.714Z,97946
2017-12-12T02:46:50.953Z,97955
2017-12-12T02:51:52.422Z,97993
2017-12-12T02:56:54.055Z,98009
2017-12-12T03:01:56.222Z,98035
2017-12-12T03:06:58.435Z,98054
2017-12-12T03:12:00.006Z,98078
2017-12-12T03:17:01.454Z,98091
2017-12-12T03:22:03.637Z,98121
2017-12-12T03:27:06.023Z,98142
2017-12-12T03:32:08.286Z,98156
2017-12-12T03:37:09.733Z,98168
2017-12-12T03:42:11.256Z,98207
2017-12-12T03:47:12.736Z,98232
2017-12-12T03:52:14.261Z,98251
2017-12-12T03:57:16.533Z,98278
2017-12-12T04:02:18.030Z,98296
2017-12-12T04:07:19.585Z,98306
2017-12-12T04:12:21.869Z,98335
2017-12-12T04:17:24.120Z,98351
2017-12-12T04:22:25.674Z,98378
2017-12-12T04:27:27.529Z,98401
2017-12-12T04:32:29.420Z,98409
2017-12-12T04:37:31.331Z,98424
2017-12-12T04:42:33.998Z,98439
2017-12-12T04:47:35.956Z,98473
2017-12-12T04:52:37.877Z,98472
2017-12-12T04:57:39.534Z,98478
2017-12-12T05:02:41.042Z,98501
2017-12-12T05:07:43.325Z,98526
2017-12-12T05:12:45.613Z,98536
2017-12-12T05:17:47.900Z,98572
2017-12-12T05:22:50.177Z,98590
2017-12-12T05:27:52.429Z,98617
2017-12-12T05:32:53.925Z,98632
2017-12-12T05:37:56.139Z,98663
2017-12-12T05:42:57.629Z,98679
2017-12-12T05:47:59.142Z,98714
2017-12-12T05:53:01.394Z,98737
2017-12-12T05:58:02.880Z,98751
2017-12-12T06:03:04.360Z,98757
2017-12-12T06:08:07.283Z,98778
2017-12-12T06:13:08.754Z,98800
2017-12-12T06:18:10.276Z,98816
2017-12-12T06:23:11.905Z,98823
2017-12-12T06:28:13.450Z,98851
2017-12-12T06:33:14.982Z,98861
2017-12-12T06:38:16.444Z,98880
2017-12-12T06:43:18.131Z,98884
2017-12-12T06:48:20.356Z,98900
2017-12-12T06:53:21.956Z,98916
2017-12-12T06:58:23.482Z,98936
2017-12-12T07:03:25.014Z,98944
2017-12-12T07:08:26.526Z,98964
2017-12-12T07:13:28.072Z,98989
2017-12-12T07:18:29.580Z,98998
2017-12-12T07:23:31.057Z,99007
2017-12-12T07:28:32.581Z,99034
2017-12-12T07:33:34.069Z,99069
2017-12-12T07:38:35.573Z,99076
2017-12-12T07:43:37.092Z,99092
2017-12-12T07:48:38.560Z,99102
2017-12-12T07:53:40.093Z,99121
2017-12-12T07:58:42.369Z,99130
2017-12-12T08:03:44.016Z,99134
2017-12-12T08:08:45.576Z,99146
2017-12-12T08:13:47.102Z,99161
2017-12-12T08:18:48.714Z,99171
2017-12-12T08:23:50.291Z,99179
2017-12-12T08:28:51.737Z,99187
2017-12-12T08:33:53.205Z,99195
2017-12-12T08:38:54.678Z,99216
2017-12-12T08:43:56.199Z,99221
2017-12-12T08:48:57.715Z,99243
2017-12-12T08:53:59.264Z,99242
2017-12-12T08:59:00.864Z,99246
2017-12-12T09:04:02.381Z,99256
2017-12-12T09:09:03.889Z,99276
2017-12-12T09:14:05.418Z,99289
2017-12-12T09:19:06.993Z,99317
2017-12-12T09:24:08.531Z,99323
2017-12-12T09:29:17.708Z,99333
2017-12-12T09:34:19.250Z,99336
2017-12-12T09:39:21.492Z,99356
2017-12-12T09:44:23.001Z,99368
2017-12-12T09:49:25.279Z,99381
2017-12-12T09:54:26.744Z,99384
2017-12-12T09:59:29.053Z,99401
2017-12-12T10:04:30.558Z,99398
2017-12-12T10:09:32.121Z,99406
2017-12-12T10:14:33.658Z,99418
2017-12-12T10:19:35.155Z,99430
2017-12-12T10:24:36.680Z,99428
2017-12-12T10:29:38.890Z,99425
2017-12-12T10:34:40.395Z,99433
2017-12-12T10:39:41.902Z,99452
2017-12-12T10:44:43.491Z,99450
2017-12-12T10:49:44.988Z,99454
2017-12-12T10:54:46.712Z,99465
2017-12-12T10:59:48.264Z,99470
2017-12-12T11:04:50.506Z,99472
2017-12-12T11:09:52.071Z,99478
2017-12-12T11:14:53.592Z,99486
2017-12-12T11:19:55.829Z,99482
2017-12-12T11:24:57.392Z,99494
2017-12-12T11:29:58.945Z,99495
2017-12-12T11:40:08.852Z,99509
2017-12-12T11:45:10.381Z,99515
2017-12-12T11:50:11.909Z,99526
2017-12-12T11:55:13.414Z,99528
2017-12-12T12:00:14.921Z,99530
2017-12-12T12:05:16.413Z,99539
2017-12-12T12:10:18.820Z,99545
2017-12-12T12:15:21.148Z,99553
2017-12-12T12:20:22.649Z,99546
2017-12-12T12:25:24.159Z,99557
2017-12-12T12:30:25.615Z,99578
2017-12-12T12:35:27.873Z,99572
2017-12-12T12:40:29.362Z,99577
2017-12-12T12:45:31.626Z,99573
2017-12-12T12:50:33.117Z,99582
2017-12-12T12:55:34.623Z,99592
2017-12-12T13:00:36.125Z,99605
2017-12-12T13:05:37.611Z,99606
2017-12-12T13:10:39.905Z,99629
2017-12-12T13:15:41.381Z,99633
2017-12-12T13:20:42.918Z,99630
2017-12-12T13:25:45.141Z,99634
2017-12-12T13:30:46.617Z,99643
2017-12-12T13:35:48.129Z,99650
2017-12-12T13:40:49.698Z,99650
2017-12-12T13:45:51.288Z,99649
2017-12-12T13:50:53.569Z,99656
2017-12-12T13:55:55.788Z,99658
2017-12-12T14:01:04.346Z,99666
2017-12-12T14:06:05.830Z,99675
2017-12-12T14:11:07.327Z,99686
2017-12-12T14:16:08.873Z,99703
2017-12-12T14:21:10.412Z,99708
2017-12-12T14:26:11.929Z,99709
2017-12-12T14:31:14.249Z,99711
2017-12-12T14:36:15.802Z,99727
2017-12-12T14:41:17.277Z,99737
2017-12-12T14:46:18.825Z,99751
2017-12-12T14:51:20.507Z,99761
2017-12-12T14:56:22.074Z,99770
2017-12-12T15:01:23.592Z,99780
2017-12-12T15:06:25.105Z,99798
2017-12-12T15:11:26.634Z,99804
2017-12-12T15:16:28.198Z,99820
2017-12-12T15:21:29.692Z,99823
2017-12-12T15:26:31.210Z,99840
2017-12-12T15:31:32.718Z,99853
2017-12-12T15:36:35.002Z,99863
2017-12-12T15:41:37.255Z,99880
2017-12-12T15:46:38.871Z,99881
2017-12-12T15:51:40.368Z,99895
2017-12-12T15:56:41.884Z,99896
2017-12-12T16:01:44.111Z,99905
2017-12-12T16:06:45.697Z,99907
2017-12-12T16:11:47.218Z,99921
2017-12-12T16:16:49.497Z,99911
2017-12-12T16:21:51.799Z,99921
2017-12-12T16:26:53.345Z,99929
2017-12-12T16:31:55.582Z,99940
2017-12-12T16:37:04.527Z,99937
2017-12-12T16:47:15.175Z,99970
2017-12-12T16:52:17.421Z,99966
2017-12-12T16:57:18.967Z,99977
2017-12-12T17:02:20.448Z,99990
2017-12-12T17:07:21.942Z,99994
2017-12-12T17:12:23.481Z,99993
2017-12-12T17:17:25.026Z,99999
2017-12-12T17:22:26.609Z,100008
2017-12-12T17:27:28.179Z,100005
2017-12-12T17:32:29.694Z,100018
2017-12-12T17:37:31.262Z,100026
2017-12-12T17:42:32.810Z,100032
2017-12-12T17:47:34.394Z,100036
2017-12-12T17:52:35.979Z,100055
2017-12-12T17:57:38.308Z,100059
2017-12-12T18:02:39.929Z,100061
2017-12-12T18:07:42.163Z,100070
2017-12-12T18:12:43.746Z,100083
2017-12-12T18:17:45.328Z,100085
2017-12-12T18:22:46.868Z,100104
2017-12-12T18:27:48.405Z,100107
2017-12-12T18:32:49.950Z,100125
2017-12-12T18:37:51.478Z,100113
2017-12-12T18:42:53.007Z,100125
2017-12-12T18:47:54.568Z,100136
2017-12-12T18:52:56.783Z,100142
2017-12-12T18:57:58.526Z,100144
2017-12-12T19:03:00.738Z,100153
2017-12-12T19:08:02.227Z,100153
2017-12-12T19:13:03.707Z,100159
2017-12-12T19:18:05.282Z,100164
2017-12-12T19:23:06.822Z,100169
2017-12-12T19:28:08.342Z,100182
2017-12-12T19:33:10.635Z,100176
2017-12-12T19:38:12.145Z,100185
2017-12-12T19:43:13.911Z,100180
2017-12-12T19:48:15.444Z,100190
2017-12-12T19:53:17.000Z,100191
2017-12-12T19:58:19.377Z,100202
2017-12-12T20:03:21.501Z,100223
2017-12-12T20:08:23.013Z,100219
2017-12-12T20:13:25.375Z,100224
2017-12-12T20:18:26.934Z,100222
2017-12-12T20:23:28.526Z,100230
2017-12-12T20:28:30.060Z,100226
2017-12-12T20:33:32.502Z,100229
2017-12-12T20:38:33.991Z,100226
2017-12-12T20:43:35.510Z,100237
2017-12-12T20:48:36.982Z,100234
2017-12-12T20:53:38.417Z,100234
2017-12-12T20:58:39.900Z,100242
2017-12-12T21:03:41.488Z,100255
2017-12-12T21:08:43.006Z,100252
2017-12-12T21:13:44.574Z,100258
2017-12-12T21:18:46.299Z,100260
2017-12-12T21:23:47.840Z,100252
2017-12-12T21:28:49.402Z,100254
2017-12-12T21:33:50.949Z,100255
2017-12-12T21:38:52.497Z,100268
2017-12-12T21:43:54.766Z,100271
2017-12-12T21:48:56.313Z,100280
2017-12-12T21:53:57.849Z,100274
2017-12-12T21:58:59.478Z,100263
2017-12-12T22:04:01.915Z,100255
2017-12-12T22:09:03.651Z,100264
2017-12-12T22:14:06.602Z,100270
2017-12-12T22:19:08.408Z,100274
2017-12-12T22:24:10.927Z,100272
2017-12-12T22:29:12.758Z,100275
2017-12-12T22:34:15.288Z,100288
2017-12-12T22:39:17.414Z,100296
2017-12-12T22:44:19.052Z,100298
2017-12-12T22:49:20.724Z,100301
2017-12-12T22:54:22.419Z,100304
2017-12-12T22:59:24.126Z,100291
2017-12-12T23:04:25.894Z,100291
2017-12-12T23:09:27.416Z,100292
2017-12-12T23:14:28.917Z,100300
2017-12-12T23:19:30.447Z,100313
2017-12-12T23:24:31.960Z,100312
2017-12-12T23:29:33.505Z,100316
2017-12-12T23:34:35.030Z,100314
2017-12-12T23:39:36.548Z,100314
2017-12-12T23:44:38.070Z,100301
2017-12-12T23:49:39.610Z,100297
2017-12-12T23:54:41.135Z,100303
2017-12-12T23:59:42.692Z,100306
